Time;durP1;ratioP1;P1;durP2;ratioP2;P2;SDS_P1;SDS_P2;PMS_P1;PMS_P2;Temp;Humidity;BMP_temperature;BMP_pressure;BME280_temperature;BME280_humidity;BME280_pressure;Samples;Min_cycle;Max_cycle;Signal;HPM_P1;HPM_P2
2023/05/14 00:00:37;;;;;;;16.98;13.48;;;15.80;49.20;;;;;;4980501;28;114646;-80
2023/05/14 00:03:04;;;;;;;16.98;13.80;;;15.70;49.00;;;;;;4985123;28;114244;-79
2023/05/14 00:05:32;;;;;;;20.98;14.38;;;15.70;49.10;;;;;;4985411;28;114713;-80
2023/05/14 00:07:59;;;;;;;20.40;15.07;;;15.80;49.10;;;;;;4984199;28;114873;-80
2023/05/14 00:10:26;;;;;;;20.85;15.40;;;15.70;49.10;;;;;;4984854;28;115870;-80
2023/05/14 00:12:54;;;;;;;21.73;14.25;;;15.70;49.30;;;;;;4985666;28;114459;-80
2023/05/14 00:15:21;;;;;;;16.90;13.10;;;15.80;49.10;;;;;;4985186;28;114576;-80
2023/05/14 00:17:48;;;;;;;17.27;14.07;;;15.80;49.10;;;;;;4965403;28;117350;-80
2023/05/14 00:20:15;;;;;;;17.30;13.88;;;15.80;49.10;;;;;;4982730;28;116222;-80
2023/05/14 00:22:42;;;;;;;15.98;13.75;;;15.80;49.00;;;;;;4985002;28;114402;-80
2023/05/14 00:25:09;;;;;;;19.70;14.07;;;15.80;49.20;;;;;;4984701;28;114534;-80
2023/05/14 00:27:37;;;;;;;17.60;14.25;;;15.80;49.00;;;;;;4999763;28;115009;-80
2023/05/14 00:30:05;;;;;;;16.85;14.10;;;15.80;49.00;;;;;;4966499;28;115836;-80
2023/05/14 00:32:33;;;;;;;19.38;15.32;;;15.80;49.20;;;;;;4985022;28;114437;-80
2023/05/14 00:35:03;;;;;;;19.95;15.27;;;15.80;49.30;;;;;;5000861;28;114375;-80
2023/05/14 00:37:30;;;;;;;18.92;13.73;;;15.80;49.40;;;;;;4983873;28;114842;-84
2023/05/14 00:39:57;;;;;;;17.63;13.02;;;15.70;49.30;;;;;;4983631;28;114690;-81
2023/05/14 00:42:25;;;;;;;16.95;13.73;;;15.70;49.40;;;;;;4982832;28;114472;-81
2023/05/14 00:44:53;;;;;;;18.63;14.40;;;15.80;49.40;;;;;;4983480;28;114708;-81
2023/05/14 00:47:20;;;;;;;19.02;14.50;;;15.80;49.40;;;;;;4981986;28;116877;-81
2023/05/14 00:49:48;;;;;;;16.27;13.02;;;15.80;49.70;;;;;;4982379;28;114564;-81
2023/05/14 00:52:15;;;;;;;17.00;13.40;;;15.80;49.50;;;;;;4983638;28;114227;-81
2023/05/14 00:54:43;;;;;;;16.55;13.13;;;15.80;49.30;;;;;;4983706;28;116356;-81
2023/05/14 00:57:10;;;;;;;18.98;12.88;;;15.80;49.30;;;;;;4982756;28;115528;-81
2023/05/14 00:59:40;;;;;;;18.00;13.73;;;15.80;49.30;;;;;;4982355;28;115904;-81
2023/05/14 01:02:10;;;;;;;17.13;13.60;;;15.80;49.40;;;;;;4984804;28;115950;-81
2023/05/14 01:04:37;;;;;;;16.40;13.13;;;15.80;49.60;;;;;;4977165;28;114572;-81
2023/05/14 01:07:33;;;;;;;17.70;13.15;;;15.80;49.50;;;;;;4986463;28;115134;-80
2023/05/14 01:10:20;;;;;;;15.10;12.38;;;15.80;49.30;;;;;;4979786;28;115870;-80
2023/05/14 01:12:54;;;;;;;17.08;14.30;;;15.90;49.20;;;;;;5000096;28;114299;-80
2023/05/14 01:15:24;;;;;;;16.60;13.70;;;15.80;49.50;;;;;;4983341;28;114374;-81
2023/05/14 01:18:04;;;;;;;16.42;13.15;;;15.80;49.60;;;;;;4981440;28;117176;-80
2023/05/14 01:20:31;;;;;;;16.20;13.32;;;15.80;49.50;;;;;;4980681;28;114827;-81
2023/05/14 01:22:58;;;;;;;17.25;12.38;;;15.80;49.60;;;;;;4983242;28;114208;-81
2023/05/14 01:25:25;;;;;;;15.55;12.75;;;15.80;49.60;;;;;;4999835;28;114594;-81
2023/05/14 01:27:58;;;;;;;14.60;11.95;;;15.80;49.50;;;;;;4982509;28;114899;-81
2023/05/14 01:30:33;;;;;;;17.48;13.27;;;15.80;49.50;;;;;;4999212;28;118808;-81
2023/05/14 01:33:03;;;;;;;14.18;11.98;;;15.80;49.60;;;;;;5001592;28;115109;-80
2023/05/14 01:35:30;;;;;;;15.85;11.65;;;15.80;49.50;;;;;;4986870;28;114354;-81
2023/05/14 01:38:01;;;;;;;16.13;12.60;;;15.80;49.50;;;;;;5001091;28;115447;-81
2023/05/14 01:40:29;;;;;;;14.93;11.73;;;15.80;49.50;;;;;;4985475;28;114602;-81
2023/05/14 01:42:56;;;;;;;14.82;12.43;;;15.80;49.40;;;;;;4970167;28;114424;-81
2023/05/14 01:45:23;;;;;;;16.85;12.43;;;15.80;49.50;;;;;;4985331;28;114234;-81
2023/05/14 01:47:50;;;;;;;15.50;12.38;;;15.90;49.50;;;;;;4986491;28;114943;-81
2023/05/14 01:50:17;;;;;;;16.73;12.43;;;15.90;49.40;;;;;;5002363;28;114753;-81
2023/05/14 01:52:45;;;;;;;15.80;12.23;;;15.80;49.30;;;;;;5003262;28;114391;-80
2023/05/14 01:55:12;;;;;;;16.02;12.38;;;15.90;49.30;;;;;;4987727;28;116697;-80
2023/05/14 01:57:40;;;;;;;14.23;11.55;;;15.80;49.30;;;;;;4986098;28;114950;-80
2023/05/14 02:00:08;;;;;;;14.65;12.35;;;15.90;49.40;;;;;;4984952;28;116752;-80
2023/05/14 02:02:41;;;;;;;16.52;12.02;;;15.80;49.30;;;;;;5001687;28;114319;-81
2023/05/14 02:05:11;;;;;;;15.55;11.95;;;15.80;49.30;;;;;;4986009;28;114474;-81
2023/05/14 02:07:38;;;;;;;15.77;11.52;;;15.80;49.30;;;;;;4986270;28;115482;-81
2023/05/14 02:10:06;;;;;;;15.70;11.50;;;15.70;49.30;;;;;;4984711;28;114701;-81
2023/05/14 02:12:33;;;;;;;14.75;10.35;;;15.70;49.40;;;;;;4986223;28;114529;-80
2023/05/14 02:15:02;;;;;;;13.60;11.52;;;15.70;49.40;;;;;;4987684;28;114268;-80
2023/05/14 02:17:31;;;;;;;14.40;11.40;;;15.70;49.40;;;;;;4984590;28;115077;-81
2023/05/14 02:19:58;;;;;;;14.85;10.88;;;15.70;49.60;;;;;;4986179;28;114699;-81
2023/05/14 02:22:26;;;;;;;15.38;12.27;;;15.70;49.50;;;;;;4986647;28;114204;-81
2023/05/14 02:24:53;;;;;;;14.40;11.13;;;15.80;49.50;;;;;;5001439;28;114401;-80
2023/05/14 02:27:20;;;;;;;14.32;10.90;;;15.80;49.50;;;;;;4986237;28;114746;-81
2023/05/14 02:29:47;;;;;;;16.15;11.13;;;15.80;49.50;;;;;;4984714;28;114849;-81
2023/05/14 02:32:14;;;;;;;15.18;11.73;;;15.80;49.40;;;;;;4987818;28;114341;-81
2023/05/14 02:34:41;;;;;;;15.20;12.05;;;15.80;49.40;;;;;;5002062;28;114369;-80
2023/05/14 02:37:08;;;;;;;16.20;11.57;;;15.80;49.30;;;;;;4985995;28;114847;-80
2023/05/14 02:39:36;;;;;;;15.45;10.80;;;15.80;49.40;;;;;;4986498;28;114640;-81
2023/05/14 02:42:04;;;;;;;15.65;12.30;;;15.80;49.40;;;;;;4986814;28;114446;-81
2023/05/14 02:44:31;;;;;;;15.95;11.38;;;15.80;49.30;;;;;;4985721;28;114229;-80
2023/05/14 02:46:58;;;;;;;14.70;11.25;;;15.80;49.40;;;;;;4985270;28;116018;-80
2023/05/14 02:49:26;;;;;;;14.40;11.45;;;15.80;49.40;;;;;;4986058;28;114860;-81
2023/05/14 02:51:55;;;;;;;15.88;11.95;;;15.80;49.50;;;;;;5002058;28;115626;-80
2023/05/14 02:54:22;;;;;;;14.80;11.82;;;15.80;49.50;;;;;;5003727;28;114251;-80
2023/05/14 02:56:50;;;;;;;14.02;10.77;;;15.80;49.50;;;;;;4968996;28;115016;-80
2023/05/14 02:59:17;;;;;;;14.02;11.02;;;15.70;49.50;;;;;;4964822;28;115807;-80
2023/05/14 03:01:45;;;;;;;13.57;10.98;;;15.80;49.50;;;;;;4964886;28;114419;-80
2023/05/14 03:04:13;;;;;;;15.77;10.93;;;15.70;49.40;;;;;;5001834;28;114252;-80
2023/05/14 03:06:40;;;;;;;13.70;10.63;;;15.70;49.50;;;;;;5001069;28;116174;-80
2023/05/14 03:09:07;;;;;;;14.30;11.98;;;15.70;49.60;;;;;;4985267;28;114847;-80
2023/05/14 03:11:36;;;;;;;13.43;11.23;;;15.70;49.50;;;;;;4985641;28;114248;-80
2023/05/14 03:14:03;;;;;;;15.10;10.75;;;15.70;49.70;;;;;;5001786;28;114611;-80
2023/05/14 03:16:30;;;;;;;14.48;10.77;;;15.70;49.70;;;;;;4984753;28;116000;-80
2023/05/14 03:18:57;;;;;;;13.77;11.05;;;15.60;49.70;;;;;;4985336;28;114647;-80
2023/05/14 03:21:24;;;;;;;13.85;10.75;;;15.70;49.70;;;;;;5001934;28;114230;-80
2023/05/14 03:23:52;;;;;;;14.82;11.25;;;15.70;49.70;;;;;;4985213;28;114218;-80
2023/05/14 03:26:20;;;;;;;12.65;10.48;;;15.70;49.60;;;;;;4983734;28;116345;-80
2023/05/14 03:28:48;;;;;;;13.82;10.77;;;15.70;49.60;;;;;;4985702;28;114675;-80
2023/05/14 03:31:15;;;;;;;14.88;11.05;;;15.60;49.70;;;;;;4985088;28;114573;-80
2023/05/14 03:33:42;;;;;;;13.73;10.70;;;15.50;49.90;;;;;;4984831;28;114366;-80
2023/05/14 03:36:10;;;;;;;15.07;11.50;;;15.50;50.20;;;;;;4983774;28;114996;-80
2023/05/14 03:38:37;;;;;;;13.63;11.00;;;15.50;50.30;;;;;;4985405;28;114602;-80
2023/05/14 03:41:04;;;;;;;13.90;11.27;;;15.60;50.20;;;;;;4986378;28;114207;-80
2023/05/14 03:43:31;;;;;;;15.75;10.95;;;15.60;50.30;;;;;;4985932;28;114188;-80
2023/05/14 03:45:58;;;;;;;12.50;9.82;;;15.70;50.20;;;;;;4983325;28;115438;-80
2023/05/14 03:48:26;;;;;;;12.82;11.05;;;15.80;50.10;;;;;;4983545;28;115805;-81
2023/05/14 03:50:53;;;;;;;14.35;10.73;;;15.80;50.00;;;;;;4985482;28;114451;-80
2023/05/14 03:53:20;;;;;;;15.48;11.38;;;15.80;49.90;;;;;;5001374;28;114719;-80
2023/05/14 03:55:47;;;;;;;15.85;11.43;;;15.90;50.00;;;;;;4966811;28;116490;-80
2023/05/14 03:58:16;;;;;;;13.80;11.95;;;15.90;49.90;;;;;;4983404;28;114702;-80
2023/05/14 04:00:43;;;;;;;12.73;10.15;;;16.00;49.80;;;;;;4984895;28;114579;-80
2023/05/14 04:03:10;;;;;;;13.48;11.00;;;16.10;49.70;;;;;;4985632;28;115485;-80
2023/05/14 04:05:38;;;;;;;12.52;9.93;;;16.30;49.30;;;;;;4999213;28;116257;-80
2023/05/14 04:08:05;;;;;;;13.38;10.32;;;16.40;49.00;;;;;;4966469;28;116668;-80
2023/05/14 04:10:33;;;;;;;12.93;10.30;;;16.60;48.60;;;;;;4985313;28;114209;-80
2023/05/14 04:13:00;;;;;;;12.90;10.00;;;16.70;48.40;;;;;;4984231;28;114905;-80
2023/05/14 04:15:31;;;;;;;12.40;9.88;;;16.80;48.20;;;;;;4967125;28;115046;-80
2023/05/14 04:18:11;;;;;;;13.10;9.70;;;16.90;47.80;;;;;;4983165;28;114741;-80
2023/05/14 04:20:38;;;;;;;12.65;10.65;;;17.00;47.60;;;;;;4983910;28;114582;-80
2023/05/14 04:23:08;;;;;;;13.80;10.45;;;17.10;47.40;;;;;;4999988;28;114254;-80
2023/05/14 04:25:35;;;;;;;12.15;10.02;;;17.20;47.30;;;;;;4982089;28;114904;-80
2023/05/14 04:28:04;;;;;;;12.35;10.02;;;17.30;47.10;;;;;;4982782;28;118134;-80
2023/05/14 04:30:32;;;;;;;12.73;9.73;;;17.20;47.00;;;;;;4999835;28;114567;-80
2023/05/14 04:32:59;;;;;;;13.98;10.38;;;17.20;47.10;;;;;;4999593;28;114387;-80
2023/05/14 04:35:26;;;;;;;10.07;8.77;;;17.10;47.10;;;;;;4982528;28;115540;-80
2023/05/14 04:37:54;;;;;;;12.60;9.82;;;17.20;47.10;;;;;;4966657;28;115010;-80
2023/05/14 04:40:22;;;;;;;10.73;9.35;;;17.20;46.60;;;;;;4985101;28;114534;-80
2023/05/14 04:42:50;;;;;;;12.75;9.32;;;17.20;46.50;;;;;;4985308;28;114423;-80
2023/05/14 04:45:18;;;;;;;14.20;9.15;;;17.20;46.40;;;;;;4988112;28;115599;-80
2023/05/14 04:47:45;;;;;;;9.85;8.13;;;17.20;46.10;;;;;;4984319;28;114692;-80
2023/05/14 04:50:13;;;;;;;12.55;8.90;;;17.20;45.80;;;;;;4985059;28;114483;-80
2023/05/14 04:52:40;;;;;;;10.80;8.43;;;17.20;46.00;;;;;;4984803;28;114584;-80
2023/05/14 04:55:09;;;;;;;10.18;7.32;;;17.30;45.80;;;;;;4984243;28;114949;-81
2023/05/14 04:57:36;;;;;;;9.27;7.47;;;17.30;45.30;;;;;;4998986;28;115305;-80
2023/05/14 05:00:08;;;;;;;8.75;6.90;;;17.30;45.00;;;;;;4984619;28;114463;-80
2023/05/14 05:02:35;;;;;;;9.43;7.00;;;17.30;44.70;;;;;;4983688;28;114541;-80
2023/05/14 05:05:03;;;;;;;8.52;6.85;;;17.40;44.70;;;;;;4983563;28;115074;-80
2023/05/14 05:07:30;;;;;;;8.65;6.68;;;17.40;44.40;;;;;;5000949;28;115349;-80
2023/05/14 05:09:57;;;;;;;8.50;6.80;;;17.60;44.00;;;;;;4987365;28;114209;-81
2023/05/14 05:12:24;;;;;;;13.45;6.93;;;17.50;43.70;;;;;;4988570;28;114437;-81
2023/05/14 05:14:51;;;;;;;9.23;6.80;;;17.70;43.80;;;;;;4986765;28;115633;-81
2023/05/14 05:17:19;;;;;;;7.75;6.43;;;17.70;43.70;;;;;;4987061;28;115858;-81
2023/05/14 05:19:46;;;;;;;8.00;6.38;;;17.70;43.60;;;;;;4988532;28;114388;-81
2023/05/14 05:22:14;;;;;;;9.88;6.28;;;17.80;43.40;;;;;;4987176;28;114253;-80
2023/05/14 05:24:41;;;;;;;7.07;6.35;;;17.80;43.00;;;;;;4987040;28;114967;-81
2023/05/14 05:27:08;;;;;;;7.57;6.03;;;17.80;42.70;;;;;;5002730;28;114676;-81
2023/05/14 05:29:35;;;;;;;8.35;6.50;;;17.90;42.80;;;;;;4986688;28;114142;-80
2023/05/14 05:32:03;;;;;;;8.40;6.10;;;18.00;42.60;;;;;;4985766;28;114449;-80
2023/05/14 05:34:30;;;;;;;6.57;5.40;;;18.10;42.70;;;;;;4985671;28;117399;-80
2023/05/14 05:36:57;;;;;;;7.82;5.60;;;18.20;42.10;;;;;;4987354;28;114630;-80
2023/05/14 05:39:25;;;;;;;7.70;5.43;;;18.40;41.90;;;;;;4967034;28;114421;-80
2023/05/14 05:41:53;;;;;;;8.85;5.75;;;18.50;41.20;;;;;;4987698;28;114127;-81
2023/05/14 05:44:20;;;;;;;6.45;5.22;;;18.60;41.10;;;;;;4987235;28;114860;-80
2023/05/14 05:46:47;;;;;;;8.45;5.40;;;18.70;40.80;;;;;;4986967;28;115183;-80
2023/05/14 05:49:14;;;;;;;8.30;5.07;;;18.70;40.50;;;;;;4986206;28;114510;-81
2023/05/14 05:51:41;;;;;;;8.23;5.35;;;18.70;40.60;;;;;;4969656;28;114321;-80
2023/05/14 05:54:08;;;;;;;6.40;5.38;;;18.70;40.50;;;;;;4985626;28;114966;-80
2023/05/14 05:56:36;;;;;;;7.95;5.10;;;18.80;39.80;;;;;;4986789;28;115874;-81
2023/05/14 05:59:03;;;;;;;6.80;5.78;;;18.80;40.20;;;;;;4986631;28;114463;-81
2023/05/14 06:01:31;;;;;;;7.03;5.35;;;18.70;40.10;;;;;;4986732;28;114423;-81
2023/05/14 06:03:58;;;;;;;7.45;6.00;;;18.60;40.70;;;;;;4986265;28;114932;-81
2023/05/14 06:06:28;;;;;;;8.68;5.63;;;18.60;40.90;;;;;;4969057;28;117136;-81
2023/05/14 06:08:55;;;;;;;7.05;5.57;;;18.70;41.00;;;;;;4987462;28;114180;-81
2023/05/14 06:11:22;;;;;;;9.23;6.97;;;18.70;41.00;;;;;;4986428;28;114463;-81
2023/05/14 06:13:50;;;;;;;8.15;5.90;;;18.80;40.90;;;;;;4985195;28;116835;-84
2023/05/14 06:16:17;;;;;;;7.80;6.47;;;18.80;40.80;;;;;;4986436;28;114624;-81
2023/05/14 06:18:45;;;;;;;8.38;5.63;;;18.80;41.50;;;;;;4987611;28;116110;-81
2023/05/14 06:21:12;;;;;;;8.27;5.70;;;18.90;41.00;;;;;;5002546;28;114402;-81
2023/05/14 06:23:40;;;;;;;9.82;5.53;;;19.00;41.00;;;;;;4986342;28;115056;-80
2023/05/14 06:26:07;;;;;;;7.88;5.30;;;19.10;41.20;;;;;;4985985;28;115382;-80
2023/05/14 06:28:34;;;;;;;7.00;5.85;;;19.20;40.70;;;;;;4986797;28;114528;-80
2023/05/14 06:31:02;;;;;;;8.32;6.30;;;19.30;40.30;;;;;;4987131;28;114405;-81
2023/05/14 06:33:30;;;;;;;7.35;5.80;;;19.40;40.10;;;;;;4988190;28;114957;-81
2023/05/14 06:36:05;;;;;;;5.88;5.10;;;19.40;39.90;;;;;;4988949;28;114711;-81
2023/05/14 06:38:32;;;;;;;8.10;5.40;;;19.40;39.90;;;;;;4987643;28;114115;-81
2023/05/14 06:41:00;;;;;;;7.95;5.82;;;19.50;39.50;;;;;;4987362;28;114073;-81
2023/05/14 06:43:27;;;;;;;9.07;6.05;;;19.40;39.70;;;;;;5001495;28;114886;-81
2023/05/14 06:45:54;;;;;;;7.63;6.55;;;19.50;39.70;;;;;;4985790;28;115927;-80
2023/05/14 06:48:22;;;;;;;7.18;5.53;;;19.70;39.30;;;;;;4986671;28;114294;-80
2023/05/14 06:50:50;;;;;;;7.93;5.63;;;19.60;39.40;;;;;;4987109;28;114468;-80
2023/05/14 06:53:17;;;;;;;8.55;5.88;;;19.70;39.50;;;;;;4984339;28;115271;-80
2023/05/14 06:55:47;;;;;;;7.40;6.30;;;19.80;39.50;;;;;;4985646;28;116181;-79
2023/05/14 06:58:14;;;;;;;8.55;6.05;;;19.80;39.50;;;;;;4986231;28;114506;-79
2023/05/14 07:00:42;;;;;;;7.50;5.32;;;19.90;39.10;;;;;;4986743;28;114175;-80
2023/05/14 07:03:09;;;;;;;6.40;5.55;;;19.80;39.30;;;;;;4985561;28;115305;-80
2023/05/14 07:05:36;;;;;;;7.25;5.90;;;19.80;39.10;;;;;;4985174;28;114643;-81
2023/05/14 07:08:06;;;;;;;7.50;5.38;;;19.90;39.70;;;;;;4986287;28;114476;-81
2023/05/14 07:10:33;;;;;;;7.68;5.57;;;20.10;39.50;;;;;;4986939;28;117159;-81
2023/05/14 07:13:02;;;;;;;6.35;5.50;;;20.10;39.20;;;;;;4985223;28;114984;-80
2023/05/14 07:15:29;;;;;;;5.85;4.90;;;20.10;39.40;;;;;;4984058;28;117470;-80
2023/05/14 07:17:56;;;;;;;7.30;5.18;;;20.00;38.80;;;;;;4985786;28;114173;-81
2023/05/14 07:20:24;;;;;;;6.88;4.75;;;19.80;38.80;;;;;;5001388;28;114540;-81
2023/05/14 07:22:52;;;;;;;6.03;4.88;;;19.50;38.80;;;;;;4985016;28;114932;-80
2023/05/14 07:25:19;;;;;;;8.30;5.25;;;19.40;39.40;;;;;;4984956;28;116818;-80
2023/05/14 07:27:46;;;;;;;7.38;4.82;;;19.40;40.10;;;;;;4986229;28;114128;-80
2023/05/14 07:30:13;;;;;;;6.53;5.00;;;19.50;40.30;;;;;;4985182;28;114229;-80
2023/05/14 07:32:41;;;;;;;7.63;5.75;;;19.50;39.60;;;;;;4985108;28;115059;-80
2023/05/14 07:35:08;;;;;;;7.22;4.82;;;19.50;39.90;;;;;;4985783;28;114615;-81
2023/05/14 07:37:39;;;;;;;6.30;5.30;;;19.60;39.90;;;;;;4968382;28;114698;-80
2023/05/14 07:40:07;;;;;;;6.50;5.55;;;19.70;39.90;;;;;;5001679;28;114676;-80
2023/05/14 07:42:34;;;;;;;6.63;5.40;;;19.80;39.70;;;;;;4966916;28;117796;-80
2023/05/14 07:45:04;;;;;;;7.55;4.90;;;19.80;39.70;;;;;;4984590;28;115810;-80
2023/05/14 07:47:32;;;;;;;9.55;5.00;;;19.80;40.30;;;;;;4986269;28;114258;-80
2023/05/14 07:49:59;;;;;;;6.63;5.47;;;19.80;40.00;;;;;;4984603;28;114711;-80
2023/05/14 07:52:26;;;;;;;7.75;5.30;;;19.90;39.70;;;;;;4984712;28;114950;-80
2023/05/14 07:54:53;;;;;;;8.50;5.93;;;19.90;39.80;;;;;;4985030;28;114781;-81
2023/05/14 07:57:21;;;;;;;7.55;5.47;;;19.90;40.00;;;;;;5000904;28;114578;-80
2023/05/14 07:59:48;;;;;;;6.53;5.35;;;19.90;39.90;;;;;;4986048;28;114238;-81
2023/05/14 08:02:16;;;;;;;6.07;5.15;;;20.00;39.50;;;;;;4984426;28;116124;-81
2023/05/14 08:04:44;;;;;;;7.05;5.10;;;19.90;39.60;;;;;;4999824;28;114695;-80
2023/05/14 08:07:11;;;;;;;9.00;6.18;;;19.80;39.80;;;;;;4984442;28;114286;-80
2023/05/14 08:09:38;;;;;;;6.97;5.68;;;19.80;39.90;;;;;;4984940;28;114549;-80
2023/05/14 08:12:06;;;;;;;7.30;5.72;;;19.80;40.00;;;;;;4983260;28;115016;-81
2023/05/14 08:14:36;;;;;;;7.18;6.15;;;19.70;39.80;;;;;;4984538;28;114761;-81
2023/05/14 08:17:03;;;;;;;6.72;5.93;;;19.50;39.80;;;;;;4985048;28;114222;-81
2023/05/14 08:19:31;;;;;;;9.35;6.20;;;19.40;40.30;;;;;;5000998;28;114325;-81
2023/05/14 08:21:58;;;;;;;7.28;6.45;;;19.30;40.70;;;;;;4951187;28;116530;-81
2023/05/14 08:24:25;;;;;;;7.25;6.10;;;19.30;40.80;;;;;;4986299;28;114651;-81
2023/05/14 08:26:53;;;;;;;7.72;6.28;;;19.30;41.00;;;;;;4993180;28;114132;-81
2023/05/14 08:29:20;;;;;;;9.50;6.78;;;19.10;41.20;;;;;;4986444;28;114202;-81
2023/05/14 08:31:48;;;;;;;9.23;7.05;;;19.00;41.50;;;;;;4983935;28;115114;-80
2023/05/14 08:34:16;;;;;;;8.02;6.00;;;18.90;41.60;;;;;;5000197;28;117586;-81
2023/05/14 08:36:43;;;;;;;7.20;5.90;;;18.80;42.10;;;;;;4985730;28;114585;-81
2023/05/14 08:39:10;;;;;;;7.07;5.85;;;18.80;42.10;;;;;;4985926;28;114307;-81
2023/05/14 08:41:37;;;;;;;7.13;5.82;;;18.80;42.00;;;;;;4985155;28;116942;-81
2023/05/14 08:44:12;;;;;;;8.23;6.20;;;18.90;42.20;;;;;;4988337;28;114649;-81
2023/05/14 08:46:42;;;;;;;6.40;5.60;;;19.10;42.20;;;;;;4969244;28;116190;-81
2023/05/14 08:49:35;;;;;;;7.63;5.40;;;19.10;41.70;;;;;;5003803;28;114274;-81
2023/05/14 08:52:03;;;;;;;7.27;5.73;;;19.20;41.50;;;;;;4981890;28;115504;-81
2023/05/14 08:54:31;;;;;;;9.00;5.75;;;18.90;42.00;;;;;;5003184;28;114803;-81
2023/05/14 08:56:59;;;;;;;6.45;5.40;;;18.90;41.80;;;;;;5003676;28;114288;-81
2023/05/14 08:59:26;;;;;;;5.93;5.25;;;18.80;42.20;;;;;;4988417;28;114491;-80
2023/05/14 09:01:53;;;;;;;9.52;6.43;;;18.80;42.10;;;;;;4986488;28;114898;-81
2023/05/14 09:04:22;;;;;;;7.22;6.00;;;18.80;42.30;;;;;;4986140;28;116991;-80
2023/05/14 09:06:52;;;;;;;7.18;5.70;;;18.80;42.10;;;;;;4987021;28;114193;-81
2023/05/14 09:09:22;;;;;;;6.80;5.13;;;18.80;42.20;;;;;;4971025;28;114335;-81
2023/05/14 09:11:50;;;;;;;8.68;5.93;;;18.70;42.30;;;;;;4987383;28;115051;-81
2023/05/14 09:14:17;;;;;;;7.03;6.00;;;18.70;42.30;;;;;;4985795;28;115179;-80
2023/05/14 09:16:46;;;;;;;6.95;6.13;;;18.50;42.30;;;;;;4988090;28;114143;-80
2023/05/14 09:19:14;;;;;;;8.07;6.05;;;18.40;42.70;;;;;;4970894;28;114766;-80
2023/05/14 09:21:42;;;;;;;7.88;6.30;;;18.20;43.20;;;;;;4985565;28;115131;-80
2023/05/14 09:24:09;;;;;;;7.00;6.25;;;18.30;43.30;;;;;;4968485;28;116159;-80
2023/05/14 09:26:36;;;;;;;7.55;5.95;;;18.30;43.00;;;;;;5003354;28;114434;-82
2023/05/14 09:29:03;;;;;;;8.48;6.40;;;18.20;43.10;;;;;;5003411;28;114468;-81
2023/05/14 09:31:32;;;;;;;10.13;6.22;;;18.20;42.90;;;;;;4987289;28;115490;-80
2023/05/14 09:33:59;;;;;;;8.60;6.45;;;18.20;42.90;;;;;;4985711;28;117964;-80
2023/05/14 09:36:26;;;;;;;7.53;6.03;;;18.20;43.00;;;;;;4970504;28;114179;-80
2023/05/14 09:38:56;;;;;;;7.75;6.47;;;18.20;43.30;;;;;;4986581;28;114318;-80
2023/05/14 09:41:24;;;;;;;6.70;5.95;;;18.30;42.90;;;;;;4987150;28;116492;-79
2023/05/14 09:43:52;;;;;;;10.48;6.80;;;18.30;42.90;;;;;;4987172;28;114729;-80
2023/05/14 09:46:20;;;;;;;6.63;5.93;;;18.30;42.80;;;;;;4985356;28;114591;-80
2023/05/14 09:48:47;;;;;;;9.07;6.90;;;18.40;42.80;;;;;;4987962;28;114496;-81
2023/05/14 09:51:19;;;;;;;8.93;6.85;;;18.30;42.60;;;;;;4987449;28;114969;-81
2023/05/14 09:53:47;;;;;;;9.00;6.68;;;18.30;42.80;;;;;;4986500;28;114679;-80
2023/05/14 09:56:15;;;;;;;9.93;6.40;;;18.30;42.80;;;;;;4967898;28;114525;-80
2023/05/14 09:58:44;;;;;;;8.13;6.63;;;18.30;42.90;;;;;;4986805;28;114335;-81
2023/05/14 10:01:13;;;;;;;7.80;7.00;;;18.30;42.80;;;;;;4953130;28;119063;-79
2023/05/14 10:03:40;;;;;;;10.95;7.55;;;18.40;42.80;;;;;;4986115;28;114740;-81
2023/05/14 10:06:09;;;;;;;8.52;6.50;;;18.40;42.80;;;;;;4986416;28;114722;-81
2023/05/14 10:08:37;;;;;;;8.20;6.50;;;18.40;42.80;;;;;;4986021;28;114352;-81
2023/05/14 10:11:07;;;;;;;7.95;6.10;;;18.40;42.50;;;;;;4968814;28;116013;-81
2023/05/14 10:13:38;;;;;;;10.13;7.22;;;18.50;42.80;;;;;;4969262;28;117284;-81
2023/05/14 10:16:11;;;;;;;8.20;6.82;;;18.60;42.70;;;;;;4970387;28;114240;-81
2023/05/14 10:18:40;;;;;;;8.70;6.70;;;18.50;42.70;;;;;;4993403;28;114308;-80
2023/05/14 10:21:07;;;;;;;7.55;6.75;;;18.30;42.80;;;;;;4993932;28;115082;-80
2023/05/14 10:23:36;;;;;;;7.60;6.13;;;18.30;43.00;;;;;;4988044;28;114773;-79
2023/05/14 10:26:03;;;;;;;7.50;5.97;;;18.40;43.10;;;;;;4970368;28;114390;-81
2023/05/14 10:28:31;;;;;;;7.85;6.25;;;18.40;43.30;;;;;;4970361;28;114199;-81
2023/05/14 10:30:59;;;;;;;7.53;6.32;;;18.50;43.30;;;;;;4986743;28;114910;-81
2023/05/14 10:33:27;;;;;;;9.73;5.93;;;18.50;43.10;;;;;;4985475;28;114699;-81
2023/05/14 10:35:55;;;;;;;7.53;5.88;;;18.40;42.80;;;;;;4986748;28;114520;-80
2023/05/14 10:38:26;;;;;;;7.40;5.75;;;18.30;42.90;;;;;;4969432;28;114412;-81
2023/05/14 10:41:05;;;;;;;6.75;5.40;;;18.30;42.80;;;;;;4985460;28;116610;-80
2023/05/14 10:43:37;;;;;;;7.47;5.70;;;18.30;42.70;;;;;;4986340;28;114621;-80
2023/05/14 10:46:04;;;;;;;9.10;5.97;;;18.30;43.10;;;;;;4986701;28;115394;-82
2023/05/14 10:48:32;;;;;;;7.95;5.97;;;18.20;43.40;;;;;;4985981;28;114215;-80
2023/05/14 10:51:00;;;;;;;6.55;5.72;;;18.30;43.50;;;;;;4968727;28;117526;-80
2023/05/14 10:53:40;;;;;;;7.00;6.30;;;18.30;43.50;;;;;;4984916;28;114613;-80
2023/05/14 10:56:11;;;;;;;7.95;5.90;;;18.40;43.50;;;;;;4987193;28;114209;-81
2023/05/14 10:58:42;;;;;;;7.90;6.13;;;18.50;42.80;;;;;;4985714;28;114177;-81
2023/05/14 11:01:11;;;;;;;8.18;6.07;;;18.50;42.80;;;;;;4968269;28;114946;-80
2023/05/14 11:03:45;;;;;;;6.97;6.18;;;18.50;42.80;;;;;;5000097;28;115864;-81
2023/05/14 11:06:13;;;;;;;8.20;6.45;;;18.50;42.90;;;;;;4986184;28;114518;-81
2023/05/14 11:08:41;;;;;;;9.60;6.95;;;18.50;42.90;;;;;;5001156;28;114455;-79
2023/05/14 11:11:08;;;;;;;9.38;6.15;;;18.50;42.80;;;;;;4967725;28;117735;-80
2023/05/14 11:13:36;;;;;;;7.93;5.18;;;18.50;42.90;;;;;;5001138;28;115174;-80
2023/05/14 11:16:03;;;;;;;6.75;5.50;;;18.50;42.50;;;;;;5001622;28;115577;-79
2023/05/14 11:18:53;;;;;;;9.52;6.15;;;18.60;42.80;;;;;;4982232;28;114388;-79
2023/05/14 11:21:20;;;;;;;8.18;4.82;;;18.50;42.90;;;;;;4984092;28;114851;-80
2023/05/14 11:23:48;;;;;;;9.30;6.00;;;18.50;42.80;;;;;;4985100;28;115045;-79
2023/05/14 11:26:15;;;;;;;7.80;5.82;;;18.50;43.10;;;;;;4984578;28;114493;-80
2023/05/14 11:28:47;;;;;;;9.70;6.30;;;18.50;43.10;;;;;;4984827;28;114595;-80
2023/05/14 11:31:15;;;;;;;7.90;6.05;;;18.50;42.80;;;;;;4966419;28;116252;-79
2023/05/14 11:33:42;;;;;;;8.75;5.45;;;18.40;42.80;;;;;;4982664;28;115830;-80
2023/05/14 11:36:10;;;;;;;8.75;5.97;;;18.30;43.00;;;;;;4984641;28;114491;-80
2023/05/14 11:38:47;;;;;;;7.25;5.70;;;18.20;43.30;;;;;;4968129;28;114444;-81
2023/05/14 11:41:15;;;;;;;7.22;5.80;;;18.20;43.30;;;;;;4984833;28;115674;-82
2023/05/14 11:43:42;;;;;;;8.52;5.60;;;18.20;43.40;;;;;;4984288;28;114864;-82
2023/05/14 11:46:16;;;;;;;7.20;5.78;;;18.20;43.50;;;;;;4985609;28;114405;-81
2023/05/14 11:48:43;;;;;;;13.50;6.70;;;18.20;43.50;;;;;;4985983;28;114294;-80
2023/05/14 11:51:10;;;;;;;8.20;5.80;;;18.20;43.60;;;;;;4983397;28;114644;-80
2023/05/14 11:53:39;;;;;;;7.95;5.78;;;18.30;43.30;;;;;;5000620;28;114720;-80
2023/05/14 11:56:18;;;;;;;;;;;;;;;;;;;;;
2023/05/14 11:58:53;;;;;;;8.65;5.95;;;18.30;43.60;;;;;;4984215;28;114842;-80
2023/05/14 12:01:21;;;;;;;6.60;5.32;;;18.30;43.60;;;;;;4965879;28;117106;-80
2023/05/14 12:03:49;;;;;;;6.20;5.32;;;18.40;43.40;;;;;;4984505;28;115491;-80
2023/05/14 12:06:17;;;;;;;7.22;5.68;;;18.40;43.30;;;;;;4985676;28;114356;-80
2023/05/14 12:08:46;;;;;;;7.22;6.07;;;18.40;43.30;;;;;;5000413;28;114488;-79
2023/05/14 12:11:13;;;;;;;8.25;5.90;;;18.30;43.40;;;;;;4950673;28;115029;-81
2023/05/14 12:13:40;;;;;;;7.20;5.68;;;18.30;43.50;;;;;;4984111;28;115754;-81
2023/05/14 12:16:07;;;;;;;7.80;5.88;;;18.30;43.50;;;;;;4971665;28;116192;-80
2023/05/14 12:18:35;;;;;;;9.55;6.95;;;18.40;43.70;;;;;;4972574;28;114523;-80
2023/05/14 12:21:03;;;;;;;6.97;5.75;;;18.40;43.80;;;;;;4984347;28;115313;-80
2023/05/14 12:23:31;;;;;;;7.28;5.93;;;18.50;43.60;;;;;;4984281;28;116755;-84
2023/05/14 12:26:05;;;;;;;7.60;6.22;;;18.50;43.60;;;;;;4983171;28;114591;-80
2023/05/14 12:28:33;;;;;;;8.63;5.93;;;18.40;43.40;;;;;;4985385;28;114542;-81
2023/05/14 12:31:04;;;;;;;8.30;6.28;;;18.30;43.50;;;;;;4982525;28;116220;-80
2023/05/14 12:33:32;;;;;;;7.43;6.03;;;18.30;43.80;;;;;;4982976;28;114843;-81
2023/05/14 12:36:00;;;;;;;8.05;5.72;;;18.30;44.10;;;;;;4983025;28;114215;-80